Time;durP1;ratioP1;P1;durP2;ratioP2;P2;SDS_P1;SDS_P2;PMS_P1;PMS_P2;Temp;Humidity;BMP_temperature;BMP_pressure;BME280_temperature;BME280_humidity;BME280_pressure;Samples;Min_cycle;Max_cycle;Signal;HPM_P1;HPM_P2
2021/09/18 00:01:44;;;;;;;0.45;0.30;;;;;;;11.49;100.00;100953.22;5066744;28;20071;-80
2021/09/18 00:04:18;;;;;;;0.40;0.30;;;;;;;11.48;100.00;100958.97;5054702;28;20076;-80
2021/09/18 00:06:51;;;;;;;0.40;0.40;;;;;;;11.58;100.00;100959.72;5052864;28;20040;-81
2021/09/18 00:09:19;;;;;;;0.32;0.30;;;;;;;11.47;100.00;100958.13;5041544;28;20056;-81
2021/09/18 00:11:47;;;;;;;0.30;0.22;;;;;;;11.46;100.00;100959.25;5049565;28;20053;-81
2021/09/18 00:14:22;;;;;;;0.22;0.22;;;;;;;11.55;100.00;100967.66;5052459;28;20481;-81
2021/09/18 00:16:50;;;;;;;0.28;0.20;;;;;;;11.53;100.00;100978.00;5045099;28;20437;-81
2021/09/18 00:19:24;;;;;;;0.22;0.22;;;;;;;11.48;100.00;100978.84;5052549;28;20044;-81
2021/09/18 00:21:57;;;;;;;0.52;0.30;;;;;;;11.49;100.00;100975.03;5052025;28;20040;-81
2021/09/18 00:24:30;;;;;;;0.50;0.40;;;;;;;11.47;100.00;100982.66;5052154;28;20052;-80
2021/09/18 00:27:24;;;;;;;0.30;0.30;;;;;;;11.41;100.00;100989.22;5047976;28;20060;-80
2021/09/18 00:29:53;;;;;;;0.28;0.28;;;;;;;11.46;100.00;100978.31;5042071;28;20150;-80
2021/09/18 00:32:27;;;;;;;0.30;0.30;;;;;;;11.48;100.00;100981.56;5049221;28;20485;-80
2021/09/18 00:34:55;;;;;;;0.35;0.32;;;;;;;11.46;100.00;100972.88;5052064;28;20045;-80
2021/09/18 00:37:28;;;;;;;0.28;0.28;;;;;;;11.39;100.00;100980.50;5044879;28;20513;-81
2021/09/18 00:40:01;;;;;;;0.20;0.20;;;;;;;11.43;100.00;100995.22;5047476;28;20195;-82
2021/09/18 00:42:34;;;;;;;0.40;0.40;;;;;;;11.44;100.00;100996.84;5046892;28;20943;-82
2021/09/18 00:45:05;;;;;;;0.25;0.25;;;;;;;11.40;100.00;101001.22;5045878;28;20048;-80
2021/09/18 00:47:33;;;;;;;0.40;0.40;;;;;;;11.42;100.00;100996.31;5047009;28;20048;-81
2021/09/18 00:50:08;;;;;;;0.30;0.30;;;;;;;11.46;100.00;101004.75;5043997;28;20045;-81
2021/09/18 00:52:36;;;;;;;0.40;0.40;;;;;;;11.48;100.00;101003.38;5033664;28;20060;-80
2021/09/18 00:55:06;;;;;;;0.47;0.30;;;;;;;11.43;100.00;101000.66;5047473;28;20076;-80
2021/09/18 00:57:34;;;;;;;0.30;0.30;;;;;;;11.48;100.00;100999.84;5046500;28;20064;-80
2021/09/18 01:00:05;;;;;;;0.30;0.30;;;;;;;11.44;100.00;100994.13;5031074;28;20501;-80
2021/09/18 01:02:38;;;;;;;0.35;0.30;;;;;;;11.42;100.00;100996.31;5045377;28;20485;-81
2021/09/18 01:05:12;;;;;;;0.30;0.30;;;;;;;11.44;100.00;100996.03;5022177;28;20058;-81
2021/09/18 01:07:55;;;;;;;0.30;0.30;;;;;;;11.45;100.00;101008.56;5016421;28;20053;-80
2021/09/18 01:10:23;;;;;;;0.40;0.32;;;;;;;11.47;100.00;101001.72;5033481;28;20056;-80
2021/09/18 01:12:58;;;;;;;0.30;0.30;;;;;;;11.34;100.00;100989.53;5033425;28;20053;-81
2021/09/18 01:15:36;;;;;;;0.30;0.30;;;;;;;11.42;100.00;100999.03;5033960;28;20063;-81
2021/09/18 01:18:10;;;;;;;0.30;0.30;;;;;;;11.56;100.00;101000.06;5051402;28;20057;-80
2021/09/18 01:20:41;;;;;;;0.30;0.30;;;;;;;11.59;100.00;101009.59;5046540;28;20045;-81
2021/09/18 01:23:10;;;;;;;0.43;0.40;;;;;;;11.52;100.00;101000.91;5051525;28;20056;-81
2021/09/18 01:25:40;;;;;;;0.30;0.30;;;;;;;11.57;100.00;101011.78;5042629;28;20045;-81
2021/09/18 01:28:09;;;;;;;0.30;0.30;;;;;;;11.53;100.00;101003.38;5039824;28;20056;-81
2021/09/18 01:30:43;;;;;;;0.38;0.38;;;;;;;11.60;100.00;101004.97;5031058;28;20052;-80
2021/09/18 01:33:17;;;;;;;0.55;0.40;;;;;;;11.61;100.00;101015.59;5037570;28;20053;-82
2021/09/18 01:35:45;;;;;;;0.20;0.20;;;;;;;11.57;100.00;101017.22;5053864;28;20049;-80
2021/09/18 01:38:18;;;;;;;0.30;0.30;;;;;;;11.71;100.00;101017.44;5052033;28;20041;-80
2021/09/18 01:40:53;;;;;;;0.30;0.30;;;;;;;11.70;100.00;101018.56;5038654;28;20048;-80
2021/09/18 01:43:29;;;;;;;0.30;0.30;;;;;;;11.60;100.00;101018.59;5051877;28;20123;-80
2021/09/18 01:46:02;;;;;;;0.40;0.40;;;;;;;11.66;100.00;101018.28;5037562;28;20492;-80
2021/09/18 01:48:35;;;;;;;0.30;0.30;;;;;;;11.63;100.00;101021.59;5066234;28;20049;-80
2021/09/18 01:51:13;;;;;;;0.20;0.20;;;;;;;11.78;100.00;101012.53;5047661;28;20071;-81
2021/09/18 01:53:46;;;;;;;0.28;0.28;;;;;;;11.68;100.00;101009.84;5053765;28;20523;-80
2021/09/18 01:56:16;;;;;;;0.43;0.40;;;;;;;11.71;100.00;101012.00;5055276;28;20072;-82
2021/09/18 01:58:44;;;;;;;0.30;0.30;;;;;;;11.82;100.00;101013.59;5041667;28;20060;-80
2021/09/18 02:01:18;;;;;;;0.30;0.30;;;;;;;11.67;100.00;101017.22;5052021;28;20041;-84
2021/09/18 02:03:46;;;;;;;0.30;0.30;;;;;;;11.69;100.00;101014.19;5045338;28;20061;-81
2021/09/18 02:06:19;;;;;;;0.30;0.30;;;;;;;11.57;100.00;101007.16;5037927;28;20049;-81
2021/09/18 02:08:47;;;;;;;0.47;0.30;;;;;;;11.67;100.00;101017.22;5054793;28;20045;-80
2021/09/18 02:11:22;;;;;;;0.30;0.30;;;;;;;11.71;100.00;101015.56;5053395;28;20049;-81
2021/09/18 02:13:50;;;;;;;0.30;0.30;;;;;;;11.68;100.00;101024.31;5051604;28;20052;-82
2021/09/18 02:16:23;;;;;;;0.30;0.30;;;;;;;11.72;100.00;101017.19;5068373;28;20428;-80
2021/09/18 02:18:52;;;;;;;0.40;0.40;;;;;;;11.82;100.00;101016.34;5052655;28;20044;-81
2021/09/18 02:21:26;;;;;;;0.30;0.30;;;;;;;11.74;100.00;101012.25;5053240;28;20048;-80
2021/09/18 02:23:59;;;;;;;0.40;0.40;;;;;;;11.87;100.00;101026.38;5036751;28;20049;-80
2021/09/18 02:26:28;;;;;;;0.30;0.30;;;;;;;11.86;100.00;101017.41;5044272;28;20713;-82
2021/09/18 02:28:57;;;;;;;0.63;0.40;;;;;;;11.68;100.00;101007.94;5054665;28;20072;-81
2021/09/18 02:31:30;;;;;;;0.40;0.40;;;;;;;11.78;100.00;101020.72;5050947;28;20050;-82
2021/09/18 02:34:03;;;;;;;0.30;0.30;;;;;;;11.74;100.00;101022.38;5047896;28;20048;-80
2021/09/18 02:36:36;;;;;;;0.30;0.30;;;;;;;11.77;100.00;101021.00;5034506;28;20042;-81
2021/09/18 02:39:10;;;;;;;0.38;0.38;;;;;;;11.75;100.00;101023.97;5063807;28;20053;-82
2021/09/18 02:41:44;;;;;;;0.30;0.30;;;;;;;11.76;100.00;101024.81;5037497;28;20429;-81
2021/09/18 02:44:13;;;;;;;0.40;0.40;;;;;;;11.74;100.00;101019.63;5047836;28;20052;-81
2021/09/18 02:46:46;;;;;;;0.40;0.40;;;;;;;11.82;100.00;101010.88;5042880;28;20053;-81
2021/09/18 02:49:14;;;;;;;0.30;0.30;;;;;;;12.02;100.00;101022.81;5050757;28;20044;-80
2021/09/18 02:51:43;;;;;;;0.38;0.38;;;;;;;11.77;100.00;101005.44;5048642;28;20045;-80
2021/09/18 02:54:11;;;;;;;0.40;0.30;;;;;;;11.82;100.00;101016.34;5052628;28;20053;-81
2021/09/18 02:56:45;;;;;;;0.52;0.35;;;;;;;11.80;100.00;101021.22;5051914;28;20049;-83
2021/09/18 02:59:14;;;;;;;0.30;0.30;;;;;;;11.78;100.00;101020.72;5054358;28;20076;-81
2021/09/18 03:01:47;;;;;;;0.43;0.40;;;;;;;11.85;100.00;101015.75;5055574;28;20899;-81
2021/09/18 03:04:21;;;;;;;0.32;0.32;;;;;;;11.83;100.00;101007.03;5038468;28;20080;-82
2021/09/18 03:07:19;;;;;;;0.28;0.28;;;;;;;12.00;100.00;101019.53;5047424;28;20045;-81
2021/09/18 03:09:52;;;;;;;0.50;0.30;;;;;;;12.04;100.00;101029.63;5066925;28;20045;-80
2021/09/18 03:12:29;;;;;;;0.30;0.30;;;;;;;12.01;100.00;101026.63;5053748;28;20045;-81
2021/09/18 03:15:04;;;;;;;0.40;0.40;;;;;;;11.91;100.00;101020.09;5047758;28;20037;-81
2021/09/18 03:17:38;;;;;;;0.30;0.30;;;;;;;11.93;100.00;101027.19;5067573;28;20059;-81
2021/09/18 03:20:12;;;;;;;0.30;0.30;;;;;;;12.05;100.00;101027.69;5045748;28;20059;-81
2021/09/18 03:22:45;;;;;;;0.30;0.30;;;;;;;11.91;100.00;101027.47;5053446;28;20049;-81
2021/09/18 03:25:18;;;;;;;0.40;0.40;;;;;;;11.83;100.00;101031.56;5052597;28;20064;-81
2021/09/18 03:27:53;;;;;;;0.30;0.30;;;;;;;11.80;100.00;101023.97;5059474;28;20397;-81
2021/09/18 03:30:26;;;;;;;0.30;0.30;;;;;;;11.79;100.00;101027.78;5052313;28;20052;-81
2021/09/18 03:33:04;;;;;;;0.30;0.30;;;;;;;11.79;100.00;101021.53;5051620;28;20048;-81
2021/09/18 03:35:38;;;;;;;0.30;0.30;;;;;;;11.81;100.00;101024.78;5043948;28;20071;-81
2021/09/18 03:38:11;;;;;;;0.30;0.30;;;;;;;11.83;100.00;101019.88;5053297;28;20054;-81
2021/09/18 03:40:45;;;;;;;0.45;0.30;;;;;;;11.89;100.00;101032.38;5059169;28;20041;-82
2021/09/18 03:43:19;;;;;;;0.38;0.38;;;;;;;11.88;100.00;101028.03;5047751;28;20053;-80
2021/09/18 03:45:52;;;;;;;2.05;0.30;;;;;;;11.86;100.00;101022.84;5047140;28;20056;-82
2021/09/18 03:48:56;;;;;;;0.30;0.30;;;;;;;11.84;100.00;101024.22;5043262;28;20044;-80
2021/09/18 03:51:29;;;;;;;0.40;0.40;;;;;;;11.80;100.00;101029.41;5045093;28;20037;-80
2021/09/18 03:53:58;;;;;;;0.50;0.30;;;;;;;11.85;100.00;101042.22;5049834;28;20128;-81
2021/09/18 03:56:26;;;;;;;0.30;0.30;;;;;;;11.83;100.00;101047.13;5050881;28;20044;-79
2021/09/18 03:59:00;;;;;;;0.38;0.38;;;;;;;11.82;100.00;101048.22;5051342;28;20044;-81
2021/09/18 04:01:34;;;;;;;0.30;0.30;;;;;;;11.84;100.00;101054.22;5039530;28;20512;-80
2021/09/18 04:04:07;;;;;;;0.30;0.30;;;;;;;11.86;100.00;101054.75;5050826;28;20056;-80
2021/09/18 04:06:41;;;;;;;0.45;0.38;;;;;;;11.90;100.00;101053.94;5042737;28;20060;-81
2021/09/18 04:09:14;;;;;;;0.30;0.30;;;;;;;11.92;100.00;101059.09;5040626;28;20049;-80
2021/09/18 04:11:42;;;;;;;0.40;0.30;;;;;;;11.96;100.00;101059.38;5060321;28;20050;-80
2021/09/18 04:14:12;;;;;;;0.85;0.30;;;;;;;11.93;100.00;101052.53;5056989;28;20072;-80
2021/09/18 04:16:45;;;;;;;0.25;0.25;;;;;;;11.96;100.00;101057.47;5050410;28;20398;-81
2021/09/18 04:19:13;;;;;;;0.75;0.40;;;;;;;12.00;100.00;101049.53;5039096;28;20056;-81
2021/09/18 04:21:42;;;;;;;0.32;0.30;;;;;;;11.97;100.00;101053.63;5050227;28;20056;-80
2021/09/18 04:24:15;;;;;;;0.28;0.28;;;;;;;11.95;100.00;101053.13;5042040;28;20049;-80
2021/09/18 04:26:48;;;;;;;0.28;0.28;;;;;;;11.95;100.00;101055.84;5062662;28;20056;-80
2021/09/18 04:29:23;;;;;;;0.20;0.20;;;;;;;11.96;100.00;101057.47;5057561;28;20049;-80
2021/09/18 04:31:56;;;;;;;0.40;0.40;;;;;;;12.01;100.00;101057.44;5047609;28;20514;-79
2021/09/18 04:34:24;;;;;;;0.30;0.30;;;;;;;11.98;100.00;101059.91;5050551;28;20052;-80
2021/09/18 04:36:58;;;;;;;0.40;0.40;;;;;;;12.00;100.00;101063.16;5049946;28;20059;-81
2021/09/18 04:39:31;;;;;;;0.35;0.30;;;;;;;11.92;100.00;101050.91;5067828;28;20485;-80
2021/09/18 04:42:04;;;;;;;0.40;0.20;;;;;;;12.25;100.00;101073.16;5050038;28;20108;-80
2021/09/18 04:44:39;;;;;;;0.30;0.30;;;;;;;12.22;100.00;101081.88;5061508;28;20651;-80
2021/09/18 04:47:12;;;;;;;0.20;0.20;;;;;;;12.09;100.00;101075.13;5050570;28;20502;-80
2021/09/18 04:49:45;;;;;;;0.40;0.30;;;;;;;12.19;100.00;101077.00;5045993;28;20045;-80
2021/09/18 04:52:18;;;;;;;0.28;0.28;;;;;;;12.16;100.00;101078.38;5066066;28;20049;-81
2021/09/18 04:54:47;;;;;;;0.30;0.30;;;;;;;12.29;100.00;101084.31;5047671;28;20057;-80
2021/09/18 04:57:20;;;;;;;0.32;0.32;;;;;;;12.12;100.00;101092.88;5052220;28;20049;-80
2021/09/18 04:59:55;;;;;;;0.30;0.30;;;;;;;12.06;100.00;101075.72;5050754;28;20053;-80
2021/09/18 05:02:28;;;;;;;0.20;0.20;;;;;;;12.07;100.00;101091.00;5045602;28;20045;-80
2021/09/18 05:05:01;;;;;;;0.43;0.40;;;;;;;12.20;100.00;101092.28;5051991;28;20045;-80
2021/09/18 05:07:34;;;;;;;0.40;0.25;;;;;;;12.16;100.00;101094.75;5047820;28;20053;-80
2021/09/18 05:10:08;;;;;;;0.30;0.30;;;;;;;12.27;100.00;101087.31;5058234;28;20046;-80
2021/09/18 05:12:37;;;;;;;0.65;0.45;;;;;;;12.31;100.00;101093.06;5045540;28;20041;-80
2021/09/18 05:15:12;;;;;;;0.35;0.35;;;;;;;12.14;100.00;101077.84;5066300;28;20064;-80
2021/09/18 05:17:45;;;;;;;0.40;0.40;;;;;;;12.34;100.00;101095.22;5057755;28;20519;-81
2021/09/18 05:20:18;;;;;;;0.40;0.40;;;;;;;12.35;100.00;101102.31;5045793;28;20049;-79
2021/09/18 05:22:46;;;;;;;0.30;0.30;;;;;;;12.38;100.00;101099.81;5048682;28;20052;-81
2021/09/18 05:25:14;;;;;;;0.60;0.50;;;;;;;12.25;100.00;101098.53;5047286;28;20049;-81
2021/09/18 05:27:52;;;;;;;0.70;0.35;;;;;;;12.28;100.00;101104.50;5046764;28;20405;-80
2021/09/18 05:30:27;;;;;;;0.20;0.20;;;;;;;12.28;100.00;101101.78;5058362;28;20389;-81
2021/09/18 05:33:00;;;;;;;0.50;0.40;;;;;;;12.29;100.00;101104.25;5049801;28;20041;-80
2021/09/18 05:35:34;;;;;;;0.22;0.22;;;;;;;12.38;100.00;101099.00;5050219;28;20057;-83
2021/09/18 05:38:07;;;;;;;0.30;0.30;;;;;;;12.40;100.00;101105.81;5049279;28;20409;-80
2021/09/18 05:40:42;;;;;;;0.30;0.30;;;;;;;12.39;100.00;101108.84;5070590;28;20057;-80
2021/09/18 05:43:15;;;;;;;0.30;0.30;;;;;;;12.35;100.00;101103.13;5048234;28;20060;-80
2021/09/18 05:45:45;;;;;;;0.60;0.40;;;;;;;12.42;100.00;101111.78;5054282;28;20040;-80
2021/09/18 05:48:18;;;;;;;0.30;0.30;;;;;;;12.53;100.00;101104.38;5049641;28;20063;-80
2021/09/18 05:50:46;;;;;;;0.90;0.30;;;;;;;12.46;100.00;101112.06;5036572;28;20048;-81
2021/09/18 05:53:20;;;;;;;0.30;0.30;;;;;;;12.47;100.00;101110.13;5035556;28;20422;-80
2021/09/18 05:55:53;;;;;;;0.20;0.20;;;;;;;12.56;100.00;101113.91;5052940;28;20481;-80
2021/09/18 05:58:26;;;;;;;0.30;0.30;;;;;;;12.57;100.00;101113.63;5044731;28;20056;-81
2021/09/18 06:01:01;;;;;;;0.28;0.28;;;;;;;12.64;100.00;101098.84;5042341;28;20056;-81
2021/09/18 06:03:35;;;;;;;0.30;0.30;;;;;;;12.73;100.00;101106.16;5037142;28;20076;-80
2021/09/18 06:06:09;;;;;;;0.28;0.28;;;;;;;12.86;100.00;101115.63;5036580;28;20052;-81
2021/09/18 06:08:42;;;;;;;0.30;0.30;;;;;;;12.68;100.00;101116.31;5053691;28;20525;-80
2021/09/18 06:11:10;;;;;;;0.30;0.30;;;;;;;12.72;100.00;101120.91;5055189;28;20041;-82
2021/09/18 06:13:39;;;;;;;0.30;0.30;;;;;;;12.71;100.00;101115.72;5054998;28;20045;-81
2021/09/18 06:16:13;;;;;;;0.28;0.25;;;;;;;12.84;100.00;101119.72;5037423;28;20060;-81
2021/09/18 06:18:47;;;;;;;0.30;0.30;;;;;;;12.79;100.00;101119.75;5048958;28;20052;-83
2021/09/18 06:21:15;;;;;;;0.30;0.30;;;;;;;12.87;100.00;101110.97;5033480;28;20068;-81
2021/09/18 06:23:49;;;;;;;0.20;0.20;;;;;;;13.17;100.00;101120.81;5047788;28;20067;-79
2021/09/18 06:26:23;;;;;;;0.20;0.20;;;;;;;13.23;100.00;101116.97;5053820;28;20052;-80
2021/09/18 06:28:51;;;;;;;0.20;0.20;;;;;;;13.28;100.00;101127.03;5049980;28;20053;-80
2021/09/18 06:31:32;;;;;;;0.20;0.20;;;;;;;13.35;100.00;101118.50;5052109;28;20489;-80
2021/09/18 06:34:06;;;;;;;0.30;0.30;;;;;;;13.39;100.00;101120.38;5052085;28;20040;-80
2021/09/18 06:36:34;;;;;;;0.45;0.30;;;;;;;13.37;100.00;101119.88;5035100;28;20052;-80
2021/09/18 06:39:07;;;;;;;0.30;0.30;;;;;;;13.38;100.00;101128.88;5053313;28;20401;-82
2021/09/18 06:41:41;;;;;;;0.20;0.20;;;;;;;13.37;100.00;101127.28;5048648;28;20062;-81
2021/09/18 06:44:09;;;;;;;0.47;0.30;;;;;;;13.26;100.00;101118.31;5045759;28;20037;-81
2021/09/18 06:46:48;;;;;;;0.30;0.30;;;;;;;13.46;100.00;101128.25;5047794;28;20045;-80
2021/09/18 06:49:23;;;;;;;0.32;0.30;;;;;;;13.40;100.00;101140.34;5052424;28;20045;-82
2021/09/18 06:51:51;;;;;;;0.20;0.20;;;;;;;13.55;100.00;101136.66;5052604;28;20056;-81
2021/09/18 06:54:24;;;;;;;0.20;0.20;;;;;;;13.71;100.00;101140.88;5049222;28;20041;-81
2021/09/18 06:56:58;;;;;;;0.20;0.20;;;;;;;13.66;100.00;101129.16;5049650;28;20045;-80
2021/09/18 06:59:31;;;;;;;0.20;0.20;;;;;;;13.74;100.00;101139.47;5067323;28;20060;-80
2021/09/18 07:02:32;;;;;;;0.30;0.30;;;;;;;13.80;100.00;101138.31;5051185;28;20098;-79
2021/09/18 07:05:10;;;;;;;0.30;0.30;;;;;;;13.87;100.00;101141.50;5053156;28;20053;-80
2021/09/18 07:08:11;;;;;;;1.05;0.30;;;;;;;13.98;100.00;101141.41;5069739;28;20045;-80
2021/09/18 07:10:44;;;;;;;0.30;0.30;;;;;;;14.28;100.00;101142.97;5047606;28;20088;-80
2021/09/18 07:13:18;;;;;;;0.20;0.20;;;;;;;14.15;100.00;101144.47;5053992;28;20048;-81
2021/09/18 07:15:48;;;;;;;0.20;0.20;;;;;;;14.15;100.00;101143.66;5068627;28;20053;-80
2021/09/18 07:18:23;;;;;;;0.20;0.20;;;;;;;14.36;100.00;101145.03;5045689;28;20053;-79
2021/09/18 07:20:56;;;;;;;0.20;0.20;;;;;;;14.30;100.00;101143.47;5048860;28;20045;-79
2021/09/18 07:23:29;;;;;;;0.20;0.20;;;;;;;14.18;100.00;101148.53;5051944;28;20049;-80
2021/09/18 07:26:03;;;;;;;0.20;0.20;;;;;;;14.18;100.00;101145.81;5051361;28;20041;-80
2021/09/18 07:28:52;;;;;;;0.20;0.20;;;;;;;14.11;100.00;101143.41;5068317;28;20053;-79
2021/09/18 07:35:28;;;;;;;0.20;0.20;;;;;;;13.92;100.00;101148.84;5052264;28;20488;-81
2021/09/18 07:38:10;;;;;;;0.28;0.20;;;;;;;13.89;100.00;101147.53;5051166;28;20919;-81
2021/09/18 07:40:39;;;;;;;0.20;0.20;;;;;;;14.05;100.00;101145.41;5058429;28;20045;-82
2021/09/18 07:43:12;;;;;;;0.20;0.20;;;;;;;14.17;100.00;101155.94;5042123;28;20061;-81
2021/09/18 07:45:40;;;;;;;0.20;0.20;;;;;;;14.18;100.00;101145.81;5062248;28;20053;-82
2021/09/18 07:48:14;;;;;;;0.20;0.20;;;;;;;14.19;100.00;101156.47;5062211;28;20497;-81
2021/09/18 07:50:48;;;;;;;0.32;0.30;;;;;;;14.22;100.00;101157.81;5044152;28;20053;-81
2021/09/18 07:53:21;;;;;;;0.20;0.20;;;;;;;13.99;100.00;101163.00;5066044;28;20053;-81
2021/09/18 07:56:00;;;;;;;0.20;0.20;;;;;;;14.00;100.00;101153.66;5061336;28;20045;-81
2021/09/18 07:58:49;;;;;;;0.30;0.30;;;;;;;14.06;100.00;101168.94;5065797;28;20060;-82
2021/09/18 08:01:20;;;;;;;0.20;0.20;;;;;;;13.94;100.00;101172.06;5047119;28;20053;-81
2021/09/18 08:04:01;;;;;;;0.10;0.10;;;;;;;14.03;100.00;101172.25;5048578;28;20052;-83
2021/09/18 08:06:36;;;;;;;0.23;0.23;;;;;;;14.06;100.00;101177.16;5050810;28;20079;-82
2021/09/18 08:09:08;;;;;;;0.32;0.20;;;;;;;14.15;100.00;101181.97;5040725;28;20053;-81
2021/09/18 08:11:42;;;;;;;0.20;0.20;;;;;;;14.14;100.00;101178.44;5042154;28;20124;-82
2021/09/18 08:14:11;;;;;;;0.22;0.22;;;;;;;14.07;100.00;101180.69;5047662;28;20049;-81
2021/09/18 08:16:39;;;;;;;0.20;0.20;;;;;;;14.11;100.00;101188.03;5059780;28;20049;-82
2021/09/18 08:19:12;;;;;;;0.20;0.20;;;;;;;14.11;100.00;101179.84;5049332;28;20493;-83
2021/09/18 08:21:49;;;;;;;0.10;0.10;;;;;;;14.07;100.00;101186.16;5065980;28;20056;-81
2021/09/18 08:24:18;;;;;;;0.20;0.17;;;;;;;14.18;100.00;101184.94;5041930;28;20489;-81
2021/09/18 08:26:51;;;;;;;0.30;0.30;;;;;;;14.02;100.00;101189.78;5067590;28;20048;-82
2021/09/18 08:29:25;;;;;;;0.20;0.20;;;;;;;13.87;100.00;101192.69;5047136;28;20058;-83
2021/09/18 08:31:57;;;;;;;0.20;0.20;;;;;;;13.81;100.00;101202.88;5058737;28;20529;-82
2021/09/18 08:34:32;;;;;;;0.30;0.30;;;;;;;13.73;100.00;101209.78;5042808;28;20386;-81
2021/09/18 08:37:07;;;;;;;0.25;0.25;;;;;;;13.75;100.00;101204.00;5040143;28;20064;-81
2021/09/18 08:39:41;;;;;;;0.20;0.20;;;;;;;14.08;100.00;101206.97;5032774;28;20040;-82
2021/09/18 08:42:16;;;;;;;0.22;0.22;;;;;;;14.00;100.00;101207.59;4999024;28;1042846;-83
2021/09/18 08:44:49;;;;;;;0.20;0.20;;;;;;;14.12;100.00;101211.53;5038740;28;20053;-82
2021/09/18 08:47:24;;;;;;;0.28;0.25;;;;;;;14.14;100.00;101221.41;5032834;28;20528;-83
2021/09/18 08:49:57;;;;;;;0.22;0.22;;;;;;;14.20;100.00;101223.78;5033939;28;20057;-83
2021/09/18 08:52:32;;;;;;;0.20;0.20;;;;;;;14.28;100.00;101219.63;5039684;28;20063;-83
2021/09/18 08:55:10;;;;;;;0.20;0.20;;;;;;;14.23;100.00;101209.50;5032677;28;20487;-84
2021/09/18 08:57:43;;;;;;;0.20;0.20;;;;;;;14.20;100.00;101220.25;5034722;28;21489;-83
2021/09/18 09:00:43;;;;;;;0.20;0.20;;;;;;;14.17;100.00;101220.81;5033436;28;20673;-82
2021/09/18 09:03:30;;;;;;;0.20;0.20;;;;;;;14.25;100.00;101215.53;5037057;28;20057;-83
2021/09/18 09:06:07;;;;;;;0.30;0.30;;;;;;;14.32;100.00;101230.78;5031646;28;20725;-82
2021/09/18 09:08:56;;;;;;;0.28;0.28;;;;;;;14.49;100.00;101227.59;5031841;28;20048;-83
2021/09/18 09:11:32;;;;;;;0.10;0.10;;;;;;;14.48;100.00;101220.47;5044608;28;20049;-81
2021/09/18 09:14:08;;;;;;;0.30;0.30;;;;;;;14.56;100.00;101226.09;5030828;28;20063;-81
2021/09/18 09:16:56;;;;;;;0.20;0.20;;;;;;;14.67;100.00;101231.50;5046795;28;20049;-83
2021/09/18 09:19:39;;;;;;;0.20;0.20;;;;;;;14.82;100.00;101230.44;5031831;28;20053;-81
2021/09/18 09:22:12;;;;;;;0.20;0.20;;;;;;;14.84;100.00;101225.50;5048517;28;20057;-81
2021/09/18 09:24:49;;;;;;;0.22;0.20;;;;;;;14.85;100.00;101229.88;5049246;28;20053;-82
2021/09/18 09:27:22;;;;;;;0.20;0.20;;;;;;;14.57;100.00;101221.44;5035189;28;20053;-80
2021/09/18 09:29:57;;;;;;;;;;;;;;;14.46;100.00;101226.25;5034370;28;20053;-81
2021/09/18 09:32:33;;;;;;;0.63;0.30;;;;;;;14.51;100.00;101219.88;5046362;28;19946;-82
2021/09/18 09:35:09;;;;;;;0.20;0.20;;;;;;;14.51;100.00;101228.91;5034698;28;20049;-83
2021/09/18 09:37:38;;;;;;;0.30;0.20;;;;;;;14.44;100.00;101226.53;5033440;28;20053;-82
2021/09/18 09:40:14;;;;;;;0.38;0.20;;;;;;;14.50;100.00;101216.34;5041501;28;20045;-83
2021/09/18 09:42:47;;;;;;;0.30;0.30;;;;;;;14.54;100.00;101233.81;5031908;28;20064;-81
2021/09/18 09:45:22;;;;;;;0.20;0.20;;;;;;;14.48;100.00;101237.69;5024273;28;20055;-83
2021/09/18 09:48:02;;;;;;;0.20;0.20;;;;;;;14.54;100.00;101238.44;5041213;28;20056;-83
2021/09/18 09:50:41;;;;;;;0.20;0.20;;;;;;;14.72;100.00;101234.16;5036521;28;20049;-83
2021/09/18 09:53:34;;;;;;;0.20;0.20;;;;;;;14.75;100.00;101245.34;5031126;28;20071;-84
2021/09/18 09:56:24;;;;;;;0.40;0.20;;;;;;;14.83;100.00;101246.63;5031349;28;20056;-82
2021/09/18 09:58:54;;;;;;;0.20;0.20;;;;;;;14.95;100.00;101240.69;5028327;28;20049;-82
2021/09/18 10:01:28;;;;;;;0.20;0.20;;;;;;;15.05;100.00;101245.22;5027782;28;20053;-83
2021/09/18 10:03:56;;;;;;;0.20;0.20;;;;;;;15.03;100.00;101233.75;5022302;28;20047;-84
2021/09/18 10:06:32;;;;;;;0.22;0.20;;;;;;;15.03;100.00;101233.75;5026827;28;20049;-82
2021/09/18 10:09:05;;;;;;;0.20;0.20;;;;;;;15.15;100.00;101250.56;5029653;28;20076;-86
2021/09/18 10:11:42;;;;;;;0.20;0.20;;;;;;;15.11;100.00;101241.28;5027284;28;20056;-82
2021/09/18 10:14:14;;;;;;;0.20;0.20;;;;;;;14.95;99.44;101236.00;5045784;28;20564;-82
2021/09/18 10:16:43;;;;;;;0.13;0.13;;;;;;;15.01;100.00;101239.53;5015242;28;20791;-83
2021/09/18 10:19:17;;;;;;;0.10;0.10;;;;;;;15.01;100.00;101241.44;5015775;28;20052;-85
2021/09/18 10:24:37;;;;;;;0.15;0.15;;;;;;;14.78;100.00;101244.75;5032559;28;20064;-82
2021/09/18 10:27:20;;;;;;;0.20;0.20;;;;;;;14.56;100.00;101242.53;5035158;28;20044;-82
2021/09/18 10:29:56;;;;;;;0.20;0.20;;;;;;;14.54;100.00;101252.97;5034400;28;20053;-80
2021/09/18 10:32:46;;;;;;;0.13;0.13;;;;;;;14.43;100.00;101248.72;5034097;28;20053;-82
2021/09/18 10:35:16;;;;;;;0.10;0.10;;;;;;;14.41;100.00;101254.47;5023065;28;20056;-83
2021/09/18 10:37:50;;;;;;;0.20;0.20;;;;;;;14.56;100.00;101253.50;5037687;28;20464;-83
2021/09/18 10:40:29;;;;;;;0.20;0.20;;;;;;;14.54;100.00;101252.16;5022867;28;20064;-82
2021/09/18 10:43:04;;;;;;;0.20;0.20;;;;;;;14.60;100.00;101248.25;5037750;28;20052;-81
2021/09/18 10:45:40;;;;;;;0.20;0.20;;;;;;;14.63;100.00;101240.28;5022058;28;20063;-81
2021/09/18 10:48:39;;;;;;;0.20;0.20;;;;;;;14.75;100.00;101256.31;5039792;28;20068;-84
2021/09/18 10:51:36;;;;;;;0.30;0.30;;;;;;;14.91;100.00;101264.31;5040509;28;20597;-82
2021/09/18 10:54:12;;;;;;;0.20;0.20;;;;;;;14.96;100.00;101258.78;5033085;28;20049;-82
2021/09/18 10:57:04;;;;;;;0.20;0.20;;;;;;;14.91;100.00;101242.38;5036343;28;20037;-85
2021/09/18 10:59:53;;;;;;;0.20;0.20;;;;;;;14.85;100.00;101247.13;5037142;28;20514;-83
2021/09/18 11:02:45;;;;;;;0.20;0.20;;;;;;;14.96;100.00;101245.88;5008605;28;20061;-85
2021/09/18 11:05:45;;;;;;;0.20;0.20;;;;;;;14.94;100.00;101256.31;5017325;28;20053;-83
2021/09/18 11:08:52;;;;;;;0.20;0.20;;;;;;;14.96;100.00;101264.25;5040365;28;20044;-84
2021/09/18 11:11:29;;;;;;;0.22;0.22;;;;;;;15.07;100.00;101262.19;5037882;28;20041;-82
2021/09/18 11:14:03;;;;;;;;;;;;;;;15.10;100.00;101261.59;5034454;28;20057;-82
2021/09/18 11:16:38;;;;;;;0.20;0.20;;;;;;;15.14;99.61;101263.44;5033749;28;19936;-85
2021/09/18 11:19:31;;;;;;;0.20;0.20;;;;;;;15.08;98.12;101261.06;5031939;28;20045;-85
2021/09/18 11:22:12;;;;;;;0.20;0.20;;;;;;;14.96;99.08;101265.06;5024661;28;20516;-83
2021/09/18 11:24:46;;;;;;;0.20;0.20;;;;;;;14.95;100.00;101265.34;5014204;28;20064;-83
2021/09/18 11:27:33;;;;;;;0.20;0.20;;;;;;;14.86;98.47;101267.94;5033239;28;20055;-83
2021/09/18 11:30:07;;;;;;;0.20;0.20;;;;;;;14.78;96.23;101263.94;5017388;28;20735;-87
2021/09/18 11:32:36;;;;;;;0.20;0.20;;;;;;;14.72;97.95;101269.75;5030273;28;21372;-86
2021/09/18 11:35:10;;;;;;;0.20;0.20;;;;;;;14.62;98.87;101271.53;5032986;28;20053;-84
2021/09/18 11:37:43;;;;;;;0.20;0.20;;;;;;;14.71;99.65;101276.38;5014107;28;20057;-89
2021/09/18 11:40:17;;;;;;;0.20;0.20;;;;;;;14.75;99.49;101272.75;5023417;28;20623;-89
2021/09/18 11:42:50;;;;;;;0.45;0.30;;;;;;;14.77;99.99;101275.19;5028604;28;20048;-87
2021/09/18 11:45:25;;;;;;;0.20;0.20;;;;;;;14.93;98.65;101279.34;5029228;28;20048;-86
2021/09/18 11:48:00;;;;;;;0.20;0.20;;;;;;;14.95;98.47;101274.38;5016531;28;20053;-87
2021/09/18 11:50:37;;;;;;;0.60;0.30;;;;;;;15.06;100.00;101285.22;5026304;28;21351;-83
2021/09/18 11:53:14;;;;;;;0.30;0.30;;;;;;;15.16;99.05;101278.78;5030667;28;20099;-87
2021/09/18 11:55:52;;;;;;;0.20;0.20;;;;;;;15.25;98.33;101277.81;5027595;28;21421;-82
2021/09/18 11:58:28;;;;;;;0.20;0.20;;;;;;;15.51;97.47;101274.69;5031420;28;20057;-87